DeKalb Peachtree Airport
KPDK : now visible

Airfield :











YOU CAN JOIN US ON...

 
LOGIN :

Register | Disclaimer

   EN    FR    IT 

 









Legend :    VFR   Marginal VFR   IFR   Intensive IFR   Very Intensive IFR
Visi :
Ceiling :
>= 8 km
>= 3000ft
5 to 8 km
1000 to 3000 ft
1500m to 5 km
500 to 1000 ft
800 to 1500m
200 to 500 ft
< 800m
< 200 ft
Symbols :   Thunderstorms  Fog  Heavy snow  Heavy precipitations  Wind > 20 kt






- Airport Elevation : 1003 ft


KPDK - DeKalb Peachtree

CURRENT METAR :
  • 171153Z 00000KT 1/4SM FG VV002 04/04 A3009 RMK AO2 SLP199 70008 T00440044 10067 20044 53002

EXPIRED METARs :
  • 171053Z AUTO 00000KT 1/4SM FG VV002 05/05 A3009 RMK AO2 SLP198 T00500050
  • 170953Z AUTO 00000KT 1/4SM FG VV002 05/05 A3007 RMK AO2 SLP190 T00500050

TAF KPDK
Valid from the 17 at 12:00 until the 18 at 12:00 UTC


171143Z 1712/1812 00000KT 1SM -DZ BR OVC003
TEMPO 1712/1714 1/4SM FG OVC001
FM171500 09004KT 4SM BR BKN005
FM171800 11006KT P6SM BKN008
FM172100 12006KT P6SM BKN015
FM180200 11006KT 5SM BR VCSH BKN008
FM180400 12005KT 4SM BR VCSH OVC003



MET'MAP, your aeronautical weather chart ! - Copyright ORBIFLY December 2007 - Disclaimer

ORBIFLY MET'MAP TEAM :

Programming & Development : Alexandra Zaïnal
Concept & original design : Baudouin d'Aumeries
Assistance for programming : Marc-Olivier Méhu
Technical & hardware support : Manuel Goepfert

Contact : metmap@orbifly.com




SOURCES & CREDITS :

   NOAA       Earth
Advisory